createdAt,value
2022-12-15T07:36:00.417Z,1054.2
2022-12-15T07:37:00.392Z,1145.1
2022-12-15T07:38:00.430Z,1235.9
2022-12-15T07:39:00.394Z,1344.6
2022-12-15T07:40:00.655Z,1453.3
2022-12-15T07:41:01.475Z,1561.9
2022-12-15T07:42:00.415Z,1679.8
2022-12-15T07:43:00.394Z,1797.7
2022-12-15T07:44:00.402Z,1940.4
2022-12-15T07:45:01.323Z,2083.1
2022-12-15T07:46:00.512Z,2225.9
2022-12-15T07:47:00.394Z,2365.9
2022-12-15T07:48:00.465Z,2505.9
2022-12-15T07:49:00.393Z,2643.7
2022-12-15T07:50:00.657Z,2781.6
2022-12-15T07:51:07.667Z,2919.5
2022-12-15T07:52:00.425Z,3091.8
2022-12-15T07:53:00.388Z,3264.1
2022-12-15T07:54:00.406Z,3456.1
2022-12-15T07:55:01.209Z,3648.1
2022-12-15T07:56:07.291Z,3840.1
2022-12-15T07:57:00.394Z,4047.6
2022-12-15T07:58:00.395Z,4255.1
2022-12-15T07:59:00.395Z,4459.2
2022-12-15T08:00:03.033Z,4663.3
2022-12-15T08:01:00.447Z,4867.5
2022-12-15T08:02:00.621Z,5046.6
2022-12-15T08:03:00.825Z,5225.7
2022-12-15T08:04:00.474Z,5417.6
2022-12-15T08:06:04.102Z,5801.3
2022-12-15T08:07:00.406Z,5966.1
2022-12-15T08:08:00.445Z,6130.8
2022-12-15T08:09:00.401Z,6234.3
2022-12-15T08:11:00.509Z,6441.2
2022-12-15T08:12:00.474Z,6498.1
2022-12-15T08:13:00.409Z,6554.9
2022-12-15T08:14:02.854Z,6584.4
2022-12-15T08:15:01.231Z,6613.9
2022-12-15T08:16:00.575Z,6643.3
2022-12-15T08:17:00.448Z,6715.8
2022-12-15T08:18:00.404Z,6788.3
2022-12-15T08:19:00.405Z,6902.2
2022-12-15T08:21:00.409Z,7130.1
2022-12-15T08:22:00.403Z,7372.2
2022-12-15T08:23:00.742Z,7614.3
2022-12-15T08:24:00.430Z,8023.3
2022-12-15T08:25:01.779Z,8432.3
2022-12-15T08:26:00.399Z,8841.3
2022-12-15T08:27:00.402Z,9382.7
2022-12-15T08:28:00.403Z,9924.1
2022-12-15T08:29:12.036Z,10521.1
2022-12-15T08:30:01.190Z,11118.0
2022-12-15T08:31:00.408Z,11714.9
2022-12-15T08:32:00.491Z,12299.1
2022-12-15T08:33:00.400Z,12883.2
2022-12-15T08:34:00.397Z,13362.3
2022-12-15T08:35:00.661Z,13841.3
2022-12-15T08:36:00.400Z,14320.4
2022-12-15T08:37:00.403Z,14572.3
2022-12-15T08:38:05.154Z,14824.1
2022-12-15T08:39:00.421Z,14848.7
2022-12-15T08:40:01.169Z,14873.3
2022-12-15T08:41:00.413Z,14897.9
2022-12-15T08:42:00.412Z,14809.6
2022-12-15T08:43:00.400Z,14721.3
2022-12-15T08:44:00.401Z,14607.7
2022-12-15T08:46:00.485Z,14380.5
2022-12-15T08:47:00.431Z,14245.7
2022-12-15T08:48:00.407Z,14111.0
2022-12-15T08:49:00.411Z,14067.7
2022-12-15T08:50:00.619Z,14024.5
2022-12-15T08:51:00.399Z,13981.2
2022-12-15T08:52:00.407Z,14110.5
2022-12-15T08:53:29.355Z,14239.7
2022-12-15T08:54:00.398Z,14467.7
2022-12-15T08:55:01.284Z,14695.7
2022-12-15T08:56:00.528Z,14923.7
2022-12-15T08:57:00.410Z,15189.9
2022-12-15T08:58:00.410Z,15456.0
2022-12-15T08:59:00.423Z,15771.7
2022-12-15T09:01:00.497Z,16403.2
2022-12-15T09:02:00.546Z,16830.8
2022-12-15T09:03:00.410Z,17258.4
2022-12-15T09:04:00.456Z,17748.1
2022-12-15T09:05:16.266Z,18237.7
2022-12-15T09:06:00.402Z,18727.4
2022-12-15T09:07:00.408Z,19107.1
2022-12-15T09:08:04.714Z,19486.7
2022-12-15T09:09:00.427Z,19840.0
2022-12-15T09:10:01.279Z,20193.3
2022-12-15T09:11:00.416Z,20546.5
2022-12-15T09:12:00.487Z,20924.1
2022-12-15T09:13:00.432Z,21301.6
2022-12-15T09:14:00.449Z,21552.9
2022-12-15T09:15:01.284Z,21804.3
2022-12-15T09:16:09.190Z,22055.6
2022-12-15T09:17:00.461Z,22603.5
2022-12-15T09:18:00.416Z,23151.3
2022-12-15T09:19:00.416Z,23883.1
2022-12-15T09:20:05.670Z,24614.9
2022-12-15T09:21:00.431Z,25346.7
2022-12-15T09:22:00.425Z,26521.9
2022-12-15T09:23:00.413Z,27697.0
2022-12-15T09:24:00.802Z,28951.3
2022-12-15T09:25:02.526Z,30205.7
2022-12-15T09:26:00.482Z,31460.0
2022-12-15T09:27:00.421Z,32987.1
2022-12-15T09:28:00.453Z,34514.3
2022-12-15T09:29:05.425Z,36146.9
2022-12-15T09:31:00.509Z,39412.1
2022-12-15T09:32:00.487Z,41165.0
2022-12-15T09:33:00.439Z,42917.9
2022-12-15T09:34:00.424Z,44177.6
2022-12-15T09:35:01.160Z,45437.3
2022-12-15T09:36:00.431Z,46696.9
2022-12-15T09:37:00.423Z,47597.1
2022-12-15T09:38:00.424Z,48497.3
2022-12-15T09:39:01.517Z,48919.5
2022-12-15T09:40:01.315Z,49341.7
2022-12-15T09:41:00.453Z,49763.9
2022-12-15T09:42:00.443Z,49179.0
2022-12-15T09:43:32.681Z,48594.1
2022-12-15T09:44:00.538Z,47789.6
2022-12-15T09:45:01.294Z,46985.1
2022-12-15T09:46:00.458Z,46180.7
2022-12-15T09:47:00.425Z,44917.5
2022-12-15T09:48:00.430Z,43654.3
2022-12-15T09:49:00.426Z,42860.3
2022-12-15T09:51:00.430Z,41272.3
2022-12-15T09:52:01.035Z,40719.7
2022-12-15T09:53:00.648Z,40167.2
2022-12-15T09:54:00.801Z,40128.1
2022-12-15T09:55:01.891Z,40088.9
2022-12-15T09:56:00.420Z,40049.8
2022-12-15T09:57:00.421Z,40503.9
2022-12-15T09:58:00.424Z,40957.9
2022-12-15T09:59:00.569Z,41689.9
2022-12-15T10:01:00.423Z,43153.7
2022-12-15T10:02:00.571Z,44023.5
2022-12-15T10:03:00.718Z,44893.3
2022-12-15T10:04:00.655Z,45677.9
2022-12-15T10:05:01.338Z,46462.4
2022-12-15T10:06:17.545Z,47246.9
2022-12-15T10:07:00.433Z,47713.7
2022-12-15T10:08:00.423Z,48180.5
2022-12-15T10:09:00.429Z,48483.2
2022-12-15T10:10:00.655Z,48785.9
2022-12-15T10:11:00.433Z,49088.5
2022-12-15T10:12:00.431Z,49611.3
2022-12-15T10:13:02.412Z,50134.0
2022-12-15T10:14:00.453Z,50577.0
2022-12-15T10:15:01.608Z,51020.0
2022-12-15T10:16:00.601Z,51463.0
2022-12-15T10:17:00.434Z,51730.3
2022-12-15T10:18:00.440Z,51997.5
2022-12-15T10:19:01.811Z,51982.7
2022-12-15T10:20:01.222Z,51967.8
2022-12-15T10:21:00.432Z,51952.9
2022-12-15T10:22:00.437Z,51929.8
2022-12-15T10:23:00.442Z,51906.7
2022-12-15T10:24:00.538Z,51879.4
2022-12-15T10:25:12.260Z,51852.1
2022-12-15T10:26:00.443Z,51824.9
2022-12-15T10:27:00.435Z,51690.4
2022-12-15T10:28:00.447Z,51555.9
2022-12-15T10:29:00.436Z,51483.7
2022-12-15T10:31:00.501Z,51339.3
2022-12-15T10:32:00.468Z,51443.8
2022-12-15T10:33:00.434Z,51548.3
2022-12-15T10:34:00.436Z,52124.8
2022-12-15T10:35:00.752Z,52701.3
2022-12-15T10:36:00.443Z,53277.9
2022-12-15T10:37:00.442Z,53724.8
2022-12-15T10:38:00.434Z,54171.7
2022-12-15T10:39:00.447Z,54126.9
2022-12-15T10:40:01.289Z,54082.1
2022-12-15T10:41:00.438Z,54037.3
2022-12-15T10:42:00.711Z,53658.5
2022-12-15T10:43:00.441Z,53279.6
2022-12-15T10:44:00.444Z,52511.5
2022-12-15T10:45:01.315Z,51743.3
2022-12-15T10:46:00.565Z,50975.2
2022-12-15T10:47:00.445Z,50393.7
2022-12-15T10:48:00.472Z,49812.3
2022-12-15T10:49:00.449Z,48621.5
2022-12-15T10:50:00.671Z,47430.8
2022-12-15T10:51:00.444Z,46240.1
2022-12-15T10:52:00.451Z,45394.0
2022-12-15T10:53:00.523Z,44547.9
2022-12-15T10:54:00.451Z,44598.9
2022-12-15T10:55:01.337Z,44649.9
2022-12-15T10:56:00.443Z,44700.9
2022-12-15T10:57:00.461Z,45617.8
2022-12-15T10:58:00.446Z,46534.7
2022-12-15T10:59:00.448Z,47719.1
2022-12-15T11:00:03.062Z,48903.5
2022-12-15T11:01:00.440Z,50087.9
2022-12-15T11:02:00.711Z,51400.5
2022-12-15T11:03:00.703Z,52713.1
2022-12-15T11:04:00.747Z,54252.1
2022-12-15T11:05:00.672Z,55791.1
2022-12-15T11:06:00.470Z,57330.1
2022-12-15T11:07:00.478Z,58667.6
2022-12-15T11:08:00.452Z,60005.1
2022-12-15T11:09:00.456Z,60400.5
2022-12-15T11:10:01.227Z,60795.8
2022-12-15T11:11:00.482Z,61191.1
2022-12-15T11:12:00.463Z,61409.8
2022-12-15T11:13:00.455Z,61628.5
2022-12-15T11:14:00.460Z,61529.0
2022-12-15T11:16:00.711Z,61330.1
2022-12-15T11:17:00.465Z,60851.5
2022-12-15T11:18:00.458Z,60372.9
2022-12-15T11:19:00.464Z,59972.8
2022-12-15T11:21:00.558Z,59172.7
2022-12-15T11:22:00.483Z,58636.0
2022-12-15T11:23:00.466Z,58099.3
2022-12-15T11:24:00.480Z,58116.7
2022-12-15T11:26:06.639Z,58151.5
2022-12-15T11:27:00.457Z,57618.8
2022-12-15T11:28:00.476Z,57086.1
2022-12-15T11:29:00.455Z,56456.1
2022-12-15T11:30:01.300Z,55826.2
2022-12-15T11:31:00.493Z,55196.3
2022-12-15T11:32:06.611Z,53593.6
2022-12-15T11:33:01.487Z,51990.9
2022-12-15T11:34:00.473Z,50010.4
2022-12-15T11:35:11.820Z,48029.9
2022-12-15T11:36:00.497Z,46049.3
2022-12-15T11:37:00.466Z,44607.9
2022-12-15T11:38:00.469Z,43166.4
2022-12-15T11:39:00.519Z,41928.5
2022-12-15T11:40:00.981Z,40690.7
2022-12-15T11:41:00.493Z,39452.8
2022-12-15T11:42:00.476Z,37995.7
2022-12-15T11:43:00.471Z,36538.7
2022-12-15T11:44:02.631Z,35085.9
2022-12-15T11:45:01.385Z,33633.1
2022-12-15T11:46:00.713Z,32180.3
2022-12-15T11:47:00.471Z,31342.3
2022-12-15T11:48:00.465Z,30504.3
2022-12-15T11:49:00.461Z,29888.0
2022-12-15T11:50:01.117Z,29271.7
2022-12-15T11:51:00.608Z,28655.5
2022-12-15T11:52:00.481Z,27733.9
2022-12-15T11:53:00.472Z,26812.4
2022-12-15T11:54:00.503Z,26095.4
2022-12-15T11:55:01.580Z,25378.4
2022-12-15T11:56:00.516Z,24661.4
2022-12-15T11:57:00.519Z,24909.6
2022-12-15T11:58:00.472Z,25157.8
2022-12-15T11:59:00.487Z,26395.2
2022-12-15T12:00:02.926Z,27632.6
2022-12-15T12:01:00.489Z,28870.0
2022-12-15T12:02:03.169Z,30288.5
2022-12-15T12:03:00.552Z,31707.1
2022-12-15T12:04:00.497Z,33193.6
2022-12-15T12:05:19.123Z,34680.1
2022-12-15T12:06:00.505Z,36166.7
2022-12-15T12:07:00.513Z,37475.5
2022-12-15T12:08:00.631Z,38784.3
2022-12-15T12:09:00.467Z,39477.9
2022-12-15T12:10:01.083Z,40171.5
2022-12-15T12:11:00.655Z,40865.1
2022-12-15T12:12:05.478Z,41247.7
2022-12-15T12:13:00.470Z,41630.3
2022-12-15T12:14:00.492Z,41041.7
2022-12-15T12:16:00.884Z,39864.7
2022-12-15T12:17:00.546Z,39007.6
2022-12-15T12:18:00.540Z,38150.5
2022-12-15T12:19:01.629Z,37224.7
2022-12-15T12:21:00.527Z,35373.1
2022-12-15T12:22:00.499Z,34469.4
2022-12-15T12:23:00.574Z,33565.7
2022-12-15T12:24:00.614Z,32835.0
2022-12-15T12:25:09.206Z,32104.3
2022-12-15T12:26:03.118Z,31373.7
2022-12-15T12:27:00.490Z,30603.4
2022-12-15T12:28:00.493Z,29833.1
2022-12-15T12:29:00.480Z,29426.5
2022-12-15T12:31:00.523Z,28613.1
2022-12-15T12:32:04.381Z,28413.3
2022-12-15T12:33:00.559Z,28213.5
2022-12-15T12:34:00.497Z,27987.4
2022-12-15T12:35:30.303Z,27761.3
2022-12-15T12:36:00.512Z,27535.1
2022-12-15T12:37:00.493Z,27236.3
2022-12-15T12:38:03.192Z,26937.4
2022-12-15T12:39:00.539Z,26707.9
2022-12-15T12:40:01.256Z,26454.3
2022-12-15T12:41:00.523Z,26200.7
2022-12-15T12:42:00.481Z,25803.8
2022-12-15T12:43:00.481Z,25406.9
2022-12-15T12:44:00.503Z,25056.1
2022-12-15T12:45:01.322Z,24688.7
2022-12-15T12:46:00.529Z,24321.2
2022-12-15T12:47:00.492Z,23978.0
2022-12-15T12:48:00.487Z,23634.8
2022-12-15T12:49:00.487Z,23396.3
2022-12-15T12:50:00.819Z,23223.5
2022-12-15T12:51:00.557Z,23050.7
2022-12-15T12:52:00.488Z,23042.6
2022-12-15T12:53:00.771Z,23034.5
2022-12-15T12:54:00.495Z,23026.5
2022-12-15T12:55:01.528Z,23000.5
2022-12-15T12:56:00.527Z,22974.6
2022-12-15T12:57:00.495Z,22894.1
2022-12-15T12:58:00.499Z,22813.7
2022-12-15T12:59:00.501Z,22733.2
2022-12-15T13:00:03.006Z,22572.1
2022-12-15T13:01:00.821Z,22411.1
2022-12-15T13:02:00.565Z,22175.3
2022-12-15T13:03:00.712Z,21939.5
2022-12-15T13:04:00.503Z,21703.7
2022-12-15T13:05:01.049Z,21295.2
2022-12-15T13:06:00.517Z,20886.7
2022-12-15T13:07:00.520Z,20432.5
2022-12-15T13:08:00.497Z,19978.3
2022-12-15T13:09:00.563Z,19524.1
2022-12-15T13:10:00.870Z,19130.4
2022-12-15T13:11:00.617Z,18736.7
2022-12-15T13:12:01.056Z,18525.3
2022-12-15T13:13:00.496Z,18314.0
2022-12-15T13:14:00.497Z,18102.7
2022-12-15T13:15:01.320Z,18066.0
2022-12-15T13:16:00.520Z,18029.3
2022-12-15T13:17:25.264Z,18183.0
2022-12-15T13:18:00.488Z,18336.7
2022-12-15T13:19:00.492Z,18490.3
2022-12-15T13:20:00.810Z,18734.4
2022-12-15T13:21:00.790Z,18978.5
2022-12-15T13:22:00.514Z,19170.9
2022-12-15T13:23:00.567Z,19363.4
2022-12-15T13:24:00.500Z,19555.9
2022-12-15T13:25:00.750Z,19685.6
2022-12-15T13:26:00.608Z,19815.3
2022-12-15T13:27:00.527Z,19799.9
2022-12-15T13:28:00.505Z,19784.5
2022-12-15T13:29:00.522Z,19769.1
2022-12-15T13:30:03.455Z,19773.3
2022-12-15T13:31:04.641Z,19777.4
2022-12-15T13:32:00.535Z,19759.3
2022-12-15T13:33:00.570Z,19741.1
2022-12-15T13:34:00.506Z,19723.0
2022-12-15T13:35:01.130Z,19618.6
2022-12-15T13:36:00.535Z,19514.2
2022-12-15T13:37:00.497Z,19398.5
2022-12-15T13:38:00.574Z,19282.7
2022-12-15T13:39:00.633Z,19167.0
2022-12-15T13:40:00.919Z,19133.2
2022-12-15T13:41:00.541Z,19099.4
2022-12-15T13:42:31.950Z,19046.1
2022-12-15T13:43:00.533Z,18992.9
2022-12-15T13:44:00.513Z,18939.6
2022-12-15T13:45:01.338Z,18682.7
2022-12-15T13:46:00.918Z,18425.9
2022-12-15T13:47:00.504Z,17985.8
2022-12-15T13:48:00.516Z,17545.7
2022-12-15T13:49:00.551Z,17105.7
2022-12-15T13:51:00.701Z,16169.9
2022-12-15T13:52:00.503Z,15702.1
2022-12-15T14:20:03.025Z,7591.0
2022-12-15T14:22:00.784Z,7385.3
2022-12-15T14:23:00.794Z,7282.5
2022-12-15T14:24:37.328Z,7220.8
2022-12-15T14:25:00.957Z,7022.0
2022-12-15T14:26:00.786Z,6880.0
2022-12-15T14:27:01.809Z,6645.5
2022-12-15T14:28:00.806Z,6463.1
2022-12-15T14:29:00.810Z,6317.2
2022-12-15T14:31:00.811Z,5996.0
2022-12-15T14:32:01.033Z,5863.0
2022-12-15T14:33:00.792Z,5749.0
2022-12-15T14:34:00.798Z,5650.2
2022-12-15T14:35:01.069Z,5396.7
2022-12-15T14:36:00.814Z,5143.1
2022-12-15T14:37:00.790Z,4908.1
2022-12-15T14:38:00.852Z,4673.0
2022-12-15T14:39:00.809Z,4437.9
2022-12-15T14:40:00.997Z,4242.4
2022-12-15T14:41:00.818Z,4046.9
2022-12-15T14:42:00.794Z,3911.1
2022-12-15T14:43:00.806Z,3775.4
2022-12-15T14:44:31.146Z,3639.7
2022-12-15T14:45:01.611Z,3533.3
2022-12-15T14:46:00.956Z,3427.0
2022-12-15T14:47:00.890Z,3308.1
2022-12-15T14:48:30.848Z,3189.1
2022-12-15T14:49:01.131Z,3070.2
2022-12-15T14:50:01.824Z,2963.7
2022-12-15T14:51:00.815Z,2857.1
2022-12-15T14:52:00.939Z,2755.0
2022-12-15T14:53:00.797Z,2652.9
2022-12-15T14:54:00.814Z,2550.7
2022-12-15T14:56:00.814Z,2350.9
2022-12-15T14:57:00.794Z,2242.6
2022-12-15T14:58:00.798Z,2134.3
2022-12-15T14:59:00.793Z,2026.1
2022-12-15T15:00:03.117Z,1913.7
2022-12-15T15:01:00.793Z,1801.4
2022-12-15T15:02:01.010Z,1701.5
2022-12-15T15:03:00.905Z,1601.7
2022-12-15T15:04:05.793Z,1501.8
2022-12-15T15:05:15.815Z,1415.4
2022-12-15T15:06:01.062Z,1329.0
2022-12-15T15:07:00.794Z,1254.4
2022-12-15T15:08:00.836Z,1179.8
2022-12-15T15:09:00.795Z,1105.2
2022-12-15T15:10:01.263Z,1044.3
2022-12-15T15:11:07.272Z,983.5
2022-12-15T15:12:00.872Z,930.1
2022-12-15T15:13:00.866Z,876.7
2022-12-15T15:14:06.909Z,823.3
2022-12-15T15:16:02.929Z,728.9
2022-12-15T15:17:00.882Z,683.4
2022-12-15T15:18:00.794Z,637.9
2022-12-15T15:19:00.792Z,592.5
2022-12-15T15:21:01.064Z,505.3
2022-12-15T15:22:00.868Z,464.3
2022-12-15T15:23:00.814Z,423.4
2022-12-15T15:24:00.901Z,382.5
2022-12-15T15:25:00.888Z,345.3
2022-12-15T15:26:01.033Z,308.1
2022-12-15T15:27:00.881Z,277.0
2022-12-15T15:28:00.803Z,245.9
2022-12-15T15:29:00.805Z,214.9
2022-12-15T15:30:01.842Z,191.3
2022-12-15T15:31:01.069Z,167.7
2022-12-15T15:32:00.847Z,149.5
2022-12-15T15:33:01.050Z,131.3
2022-12-15T15:34:01.002Z,113.1
2022-12-15T15:35:00.894Z,98.4
2022-12-15T15:36:01.598Z,83.7
2022-12-15T15:37:00.817Z,72.4
2022-12-15T15:38:00.874Z,61.1
2022-12-15T15:39:00.870Z,49.7
2022-12-15T15:40:00.887Z,42.0
2022-12-15T15:41:01.013Z,34.3
2022-12-15T15:42:00.825Z,29.6
2022-12-15T15:43:00.875Z,24.9
2022-12-15T15:44:00.820Z,20.3
2022-12-15T15:46:01.088Z,14.5
2022-12-15T15:47:00.811Z,12.8
2022-12-15T15:48:00.820Z,11.1
2022-12-15T15:49:00.824Z,9.3
2022-12-15T15:50:00.832Z,8.2
2022-12-15T15:51:01.287Z,7.1
2022-12-15T15:52:00.821Z,6.3
2022-12-15T15:53:00.899Z,5.6
2022-12-15T15:54:01.238Z,4.9
2022-12-15T15:55:00.831Z,4.4
2022-12-15T15:56:01.064Z,3.9
2022-12-15T15:57:00.816Z,3.5
2022-12-15T15:58:00.980Z,3.1
2022-12-15T15:59:00.878Z,2.7
2022-12-15T16:01:01.090Z,2.2
2022-12-15T16:02:00.932Z,2.0
2022-12-15T16:03:00.986Z,1.8
2022-12-15T16:04:00.934Z,1.6
2022-12-15T16:05:00.843Z,1.5
2022-12-15T16:06:15.833Z,1.3
2022-12-15T16:08:01.093Z,1.2
2022-12-15T16:09:00.812Z,1.1
2022-12-15T16:11:00.830Z,1.0
2022-12-15T16:15:01.898Z,1.0
2022-12-15T17:02:01.135Z,0.8
2022-12-15T17:03:01.126Z,0.7
2022-12-15T17:06:00.842Z,0.5
2022-12-15T17:08:00.902Z,0.4
2022-12-15T17:09:00.907Z,0.3
2022-12-15T19:17:01.140Z,0.1
2022-12-15T19:19:01.145Z,0.2
2022-12-15T19:20:01.343Z,0.3
2022-12-15T19:22:01.112Z,0.4
2022-12-15T19:23:01.155Z,0.5
2022-12-15T19:30:02.204Z,0.5
2022-12-15T19:33:01.203Z,0.4
2022-12-15T19:34:01.123Z,0.3
2022-12-15T19:36:01.188Z,0.2
2022-12-15T19:37:01.119Z,0.1
2022-12-15T19:42:01.311Z,0.2
2022-12-15T19:43:01.114Z,0.3
2022-12-15T19:46:01.197Z,0.5
2022-12-15T19:48:01.323Z,0.6
2022-12-15T19:49:01.138Z,0.7
2022-12-15T19:51:01.121Z,0.8
2022-12-15T19:52:01.116Z,0.9
2022-12-15T19:54:01.385Z,1.0
2022-12-15T20:00:04.187Z,1.0
2022-12-15T21:20:01.342Z,0.9
2022-12-15T21:22:02.148Z,0.8
2022-12-15T21:23:01.117Z,0.7
2022-12-15T21:25:01.855Z,0.6
2022-12-15T21:26:01.125Z,0.5
2022-12-15T21:28:01.130Z,0.4
2022-12-15T21:29:01.118Z,0.3
2022-12-15T21:30:01.954Z,0.3
2022-12-15T21:31:01.183Z,0.2
2022-12-15T21:32:01.116Z,0.1
